createdAt,value
2017-06-15T00:01:27.789Z,16.10
2017-06-15T00:03:55.917Z,16.00
2017-06-15T00:06:24.910Z,15.80
2017-06-15T00:08:53.065Z,15.80
2017-06-15T00:11:21.176Z,15.70
2017-06-15T00:13:49.424Z,15.60
2017-06-15T00:16:17.565Z,15.70
2017-06-15T00:18:45.907Z,15.60
2017-06-15T00:21:14.019Z,15.60
2017-06-15T00:23:42.170Z,15.70
2017-06-15T00:26:10.309Z,15.70
2017-06-15T00:28:38.447Z,15.80
2017-06-15T00:31:06.805Z,15.80
2017-06-15T00:33:34.921Z,15.70
2017-06-15T00:36:03.074Z,15.80
2017-06-15T00:38:31.229Z,15.90
2017-06-15T00:41:00.263Z,15.80
2017-06-15T00:43:28.424Z,15.80
2017-06-15T00:45:56.557Z,15.70
2017-06-15T00:48:25.536Z,15.70
2017-06-15T00:50:54.521Z,15.70
2017-06-15T00:53:22.635Z,15.60
2017-06-15T00:55:50.787Z,15.50
2017-06-15T00:58:18.935Z,15.40
2017-06-15T01:00:47.106Z,15.40
2017-06-15T01:03:15.445Z,15.30
2017-06-15T01:05:45.158Z,15.30
2017-06-15T01:08:13.753Z,15.30
2017-06-15T01:10:41.886Z,15.20
2017-06-15T01:13:10.114Z,15.20
2017-06-15T01:15:39.111Z,15.10
2017-06-15T01:18:07.235Z,15.00
2017-06-15T01:20:35.454Z,14.90
2017-06-15T01:23:03.628Z,14.90
2017-06-15T01:25:31.803Z,14.90
2017-06-15T01:28:00.855Z,14.90
2017-06-15T01:30:29.005Z,14.90
2017-06-15T01:32:57.328Z,14.80
2017-06-15T01:35:25.482Z,14.80
2017-06-15T01:37:53.666Z,14.70
2017-06-15T01:40:21.854Z,14.60
2017-06-15T01:42:49.978Z,14.60
2017-06-15T01:45:18.124Z,14.60
2017-06-15T01:47:46.245Z,14.60
2017-06-15T01:50:14.401Z,14.60
2017-06-15T01:52:42.525Z,14.60
2017-06-15T01:55:10.646Z,14.60
2017-06-15T01:57:39.542Z,14.40
2017-06-15T02:00:08.499Z,14.40
2017-06-15T02:02:36.677Z,14.40
2017-06-15T02:05:04.806Z,14.30
2017-06-15T02:07:32.954Z,14.30
2017-06-15T02:10:01.115Z,14.20
2017-06-15T02:12:29.249Z,14.20
2017-06-15T02:14:57.434Z,14.20
2017-06-15T02:17:26.321Z,14.10
2017-06-15T02:19:54.440Z,14.00
2017-06-15T02:22:22.646Z,14.00
2017-06-15T02:24:51.054Z,13.90
2017-06-15T02:27:19.312Z,13.80
2017-06-15T02:29:47.438Z,13.90
2017-06-15T02:32:15.684Z,13.90
2017-06-15T02:34:43.814Z,13.90
2017-06-15T02:37:12.022Z,13.90
2017-06-15T02:39:40.147Z,13.80
2017-06-15T02:42:08.289Z,13.80
2017-06-15T02:44:36.530Z,13.80
2017-06-15T02:47:04.938Z,13.80
2017-06-15T02:49:33.179Z,13.70
2017-06-15T02:52:01.456Z,13.60
2017-06-15T02:54:29.583Z,13.50
2017-06-15T02:56:57.728Z,13.50
2017-06-15T02:59:25.877Z,13.40
2017-06-15T03:01:54.029Z,13.40
2017-06-15T03:04:23.243Z,13.30
2017-06-15T03:06:51.466Z,13.20
2017-06-15T03:09:19.605Z,13.20
2017-06-15T03:11:47.734Z,13.20
2017-06-15T03:14:16.040Z,13.30
2017-06-15T03:16:44.917Z,13.40
2017-06-15T03:19:13.063Z,13.40
2017-06-15T03:21:41.197Z,13.30
2017-06-15T03:24:09.352Z,13.40
2017-06-15T03:26:37.509Z,13.50
2017-06-15T03:29:05.684Z,13.50
2017-06-15T03:31:34.633Z,13.50
2017-06-15T03:34:02.810Z,13.40
2017-06-15T03:36:30.991Z,13.50
2017-06-15T03:38:59.230Z,13.60
2017-06-15T03:41:28.223Z,13.60
2017-06-15T03:43:56.378Z,13.50
2017-06-15T03:46:24.520Z,13.60
2017-06-15T03:48:52.726Z,13.70
2017-06-15T03:51:20.901Z,13.70
2017-06-15T03:53:49.272Z,13.70
2017-06-15T03:56:17.564Z,13.80
2017-06-15T03:58:45.727Z,13.80
2017-06-15T04:01:13.843Z,13.80
2017-06-15T04:03:41.971Z,13.90
2017-06-15T04:06:10.211Z,13.90
2017-06-15T04:08:39.365Z,14.00
2017-06-15T04:11:07.591Z,14.10
2017-06-15T04:13:35.813Z,14.20
2017-06-15T04:16:04.003Z,14.10
2017-06-15T04:18:32.299Z,14.20
2017-06-15T04:21:00.432Z,14.20
2017-06-15T04:23:29.074Z,14.30
2017-06-15T04:25:57.227Z,14.30
2017-06-15T04:28:25.385Z,14.20
2017-06-15T04:30:53.581Z,14.20
2017-06-15T04:33:21.842Z,14.20
2017-06-15T04:35:49.989Z,14.30
2017-06-15T04:38:18.205Z,14.30
2017-06-15T04:40:46.770Z,14.40
2017-06-15T04:43:15.695Z,14.40
2017-06-15T04:45:44.235Z,14.60
2017-06-15T04:48:13.180Z,14.80
2017-06-15T04:50:41.396Z,14.80
2017-06-15T04:53:09.800Z,14.90
2017-06-15T04:55:37.970Z,15.00
2017-06-15T04:58:06.957Z,15.40
2017-06-15T05:00:36.264Z,15.30
2017-06-15T05:03:04.657Z,15.50
2017-06-15T05:05:32.792Z,15.70
2017-06-15T05:08:01.963Z,15.80
2017-06-15T05:10:30.190Z,16.00
2017-06-15T05:12:58.394Z,16.00
2017-06-15T05:15:26.560Z,16.20
2017-06-15T05:17:55.578Z,16.30
2017-06-15T05:20:23.780Z,16.50
2017-06-15T05:22:52.673Z,16.50
2017-06-15T05:25:20.896Z,16.60
2017-06-15T05:27:49.040Z,16.70
2017-06-15T05:30:17.178Z,16.90
2017-06-15T05:32:46.102Z,17.00
2017-06-15T05:35:14.289Z,17.00
2017-06-15T05:37:43.079Z,17.20
2017-06-15T05:40:12.478Z,17.30
2017-06-15T05:42:41.185Z,17.40
2017-06-15T05:45:09.342Z,17.40
2017-06-15T05:47:38.257Z,17.60
2017-06-15T05:50:06.449Z,17.60
2017-06-15T05:52:35.081Z,17.60
2017-06-15T05:55:03.446Z,17.70
2017-06-15T05:57:32.367Z,17.80
2017-06-15T06:00:00.536Z,17.70
2017-06-15T06:02:28.663Z,17.90
2017-06-15T06:04:56.803Z,18.00
2017-06-15T06:07:24.981Z,18.10
2017-06-15T06:09:53.168Z,18.10
2017-06-15T06:12:21.315Z,18.10
2017-06-15T06:14:49.481Z,18.20
2017-06-15T06:17:17.648Z,18.40
2017-06-15T06:19:45.812Z,18.50
2017-06-15T06:22:14.003Z,18.50
2017-06-15T06:24:42.155Z,18.60
2017-06-15T06:27:10.421Z,18.60
2017-06-15T06:29:38.619Z,18.60
2017-06-15T06:32:06.761Z,18.60
2017-06-15T06:34:35.036Z,18.70
2017-06-15T06:37:03.953Z,18.80
2017-06-15T06:39:32.117Z,18.70
2017-06-15T06:42:00.297Z,18.80
2017-06-15T06:44:28.449Z,18.90
2017-06-15T06:46:57.366Z,18.90
2017-06-15T06:49:25.487Z,18.80
2017-06-15T06:51:53.790Z,18.90
2017-06-15T06:54:21.993Z,18.80
2017-06-15T06:56:50.169Z,18.70
2017-06-15T06:59:18.339Z,18.80
2017-06-15T07:01:46.577Z,18.80
2017-06-15T07:04:14.730Z,18.80
2017-06-15T07:06:42.869Z,18.90
2017-06-15T07:09:11.842Z,19.20
2017-06-15T07:11:40.016Z,19.20
2017-06-15T07:14:08.162Z,19.30
2017-06-15T07:16:36.330Z,19.50
2017-06-15T07:19:05.074Z,19.70
2017-06-15T07:21:33.241Z,19.80
2017-06-15T07:24:01.860Z,20.00
2017-06-15T07:26:30.030Z,20.30
2017-06-15T07:28:58.170Z,20.70
2017-06-15T07:31:26.331Z,21.00
2017-06-15T07:33:54.467Z,20.80
2017-06-15T07:36:22.624Z,21.00
2017-06-15T07:38:50.785Z,21.10
2017-06-15T07:41:18.949Z,21.50
2017-06-15T07:43:48.335Z,21.80
2017-06-15T07:46:16.486Z,21.70
2017-06-15T07:48:44.732Z,22.00
2017-06-15T07:51:13.080Z,22.20
2017-06-15T07:53:41.195Z,22.10
2017-06-15T07:56:09.357Z,22.30
2017-06-15T07:58:37.470Z,22.40
2017-06-15T08:01:06.406Z,22.70
2017-06-15T08:03:34.599Z,22.60
2017-06-15T08:06:02.781Z,22.60
2017-06-15T08:08:30.956Z,22.60
2017-06-15T08:10:59.113Z,22.80
2017-06-15T08:13:27.303Z,22.90
2017-06-15T08:15:55.496Z,23.00
2017-06-15T08:18:23.709Z,23.00
2017-06-15T08:20:52.723Z,23.20
2017-06-15T08:23:20.847Z,23.20
2017-06-15T08:25:49.396Z,23.20
2017-06-15T08:28:17.522Z,23.60
2017-06-15T08:30:45.709Z,23.20
2017-06-15T08:33:13.940Z,23.00
2017-06-15T08:35:42.863Z,23.60
2017-06-15T08:38:11.016Z,23.60
2017-06-15T08:40:39.202Z,23.60
2017-06-15T08:43:07.388Z,23.70
2017-06-15T08:45:35.543Z,23.90
2017-06-15T08:48:03.730Z,23.90
2017-06-15T08:50:31.883Z,24.10
2017-06-15T08:53:00.005Z,24.50
2017-06-15T08:55:28.968Z,25.10
2017-06-15T08:57:57.086Z,25.00
2017-06-15T09:00:25.672Z,25.20
2017-06-15T09:02:53.833Z,25.20
2017-06-15T09:05:22.542Z,25.10
2017-06-15T09:07:50.682Z,24.60
2017-06-15T09:10:18.803Z,24.20
2017-06-15T09:12:46.962Z,24.20
2017-06-15T09:15:15.129Z,24.60
2017-06-15T09:17:43.334Z,24.90
2017-06-15T09:20:11.447Z,24.90
2017-06-15T09:22:39.748Z,25.30
2017-06-15T09:25:09.010Z,25.30
2017-06-15T09:27:37.191Z,25.20
2017-06-15T09:30:05.331Z,25.50
2017-06-15T09:32:33.474Z,25.90
2017-06-15T09:35:01.647Z,26.50
2017-06-15T09:37:29.768Z,26.60
2017-06-15T09:39:57.937Z,26.30
2017-06-15T09:42:26.084Z,26.30
2017-06-15T09:44:54.218Z,26.60
2017-06-15T09:47:22.390Z,26.70
2017-06-15T09:49:50.502Z,26.40
2017-06-15T09:52:18.988Z,26.00
2017-06-15T09:54:47.140Z,26.10
2017-06-15T09:57:15.378Z,26.20
2017-06-15T09:59:43.541Z,26.20
2017-06-15T10:02:12.445Z,26.00
2017-06-15T10:04:41.376Z,25.60
2017-06-15T10:07:09.576Z,25.50
2017-06-15T10:09:37.753Z,25.50
2017-06-15T10:12:05.894Z,25.80
2017-06-15T10:14:34.080Z,26.20
2017-06-15T10:17:03.168Z,27.00
2017-06-15T10:19:31.291Z,26.90
2017-06-15T10:21:59.424Z,27.10
2017-06-15T10:24:27.600Z,26.60
2017-06-15T10:26:55.771Z,26.30
2017-06-15T10:29:23.897Z,26.20
2017-06-15T10:31:52.052Z,26.30
2017-06-15T10:34:20.187Z,26.30
2017-06-15T10:36:48.365Z,26.20
2017-06-15T10:39:16.515Z,26.10
2017-06-15T10:41:44.631Z,25.80
2017-06-15T10:44:12.812Z,26.20
2017-06-15T10:46:40.977Z,26.20
2017-06-15T10:49:09.105Z,26.30
2017-06-15T10:51:37.265Z,26.20
2017-06-15T10:54:05.388Z,26.40
2017-06-15T10:56:33.573Z,26.60
2017-06-15T10:59:02.651Z,26.70
2017-06-15T11:01:30.859Z,26.90
2017-06-15T11:03:59.021Z,26.80
2017-06-15T11:06:27.180Z,27.00
2017-06-15T11:08:55.337Z,27.10
2017-06-15T11:11:23.459Z,27.30
2017-06-15T11:13:51.610Z,27.80
2017-06-15T11:16:19.741Z,27.60
2017-06-15T11:18:48.666Z,26.70
2017-06-15T11:21:16.834Z,26.70
2017-06-15T11:23:44.961Z,26.60
2017-06-15T11:26:13.099Z,26.80
2017-06-15T11:28:41.248Z,26.80
2017-06-15T11:31:09.403Z,26.80
2017-06-15T11:33:37.554Z,26.60
2017-06-15T11:36:05.720Z,26.50
2017-06-15T11:38:33.849Z,26.60
2017-06-15T11:41:01.981Z,26.80
2017-06-15T11:43:30.139Z,26.90
2017-06-15T11:45:58.264Z,26.40
2017-06-15T11:48:27.206Z,26.00
2017-06-15T11:50:55.345Z,26.00
2017-06-15T11:53:23.513Z,26.30
2017-06-15T11:55:51.662Z,26.40
2017-06-15T11:58:19.820Z,26.50
2017-06-15T12:00:47.943Z,26.70
2017-06-15T12:03:16.082Z,26.80
2017-06-15T12:05:44.296Z,27.00
2017-06-15T12:08:13.663Z,26.90
2017-06-15T12:10:41.850Z,26.90
2017-06-15T12:13:10.021Z,26.40
2017-06-15T12:15:38.158Z,26.50
2017-06-15T12:18:06.331Z,26.70
2017-06-15T12:20:34.561Z,26.80
2017-06-15T12:23:02.728Z,26.90
2017-06-15T12:25:30.848Z,26.80
2017-06-15T12:27:59.023Z,26.80
2017-06-15T12:30:27.144Z,26.60
2017-06-15T12:32:55.277Z,26.90
2017-06-15T12:35:23.616Z,27.50
2017-06-15T12:37:51.748Z,28.00
2017-06-15T12:40:19.921Z,28.20
2017-06-15T12:42:48.064Z,28.20
2017-06-15T12:45:16.962Z,28.00
2017-06-15T12:47:45.110Z,27.60
2017-06-15T12:50:13.241Z,27.50
2017-06-15T12:52:41.376Z,27.60
2017-06-15T12:55:09.506Z,27.60
2017-06-15T12:57:38.584Z,27.60
2017-06-15T13:00:06.738Z,27.60
2017-06-15T13:02:35.268Z,27.40
2017-06-15T13:05:03.449Z,27.30
2017-06-15T13:07:31.675Z,27.50
2017-06-15T13:09:59.943Z,27.60
2017-06-15T13:12:28.115Z,27.60
2017-06-15T13:14:56.284Z,27.60
2017-06-15T13:17:24.409Z,27.90
2017-06-15T13:19:52.597Z,27.80
2017-06-15T13:22:20.830Z,27.80
2017-06-15T13:24:48.973Z,27.70
2017-06-15T13:27:17.210Z,27.80
2017-06-15T13:29:45.369Z,28.00
2017-06-15T13:32:14.284Z,27.50
2017-06-15T13:34:42.482Z,27.50
2017-06-15T13:37:10.774Z,27.40
2017-06-15T13:39:39.569Z,27.50
2017-06-15T13:42:07.756Z,27.80
2017-06-15T13:44:35.938Z,27.80
2017-06-15T13:47:04.163Z,27.40
2017-06-15T13:49:32.367Z,27.40
2017-06-15T13:52:00.537Z,26.90
2017-06-15T13:54:28.712Z,26.80
2017-06-15T13:56:56.947Z,26.60
2017-06-15T13:59:25.904Z,26.70
2017-06-15T14:01:54.063Z,27.00
2017-06-15T14:04:22.328Z,27.00
2017-06-15T14:06:50.571Z,27.20
2017-06-15T14:09:19.473Z,27.00
2017-06-15T14:11:47.678Z,27.00
2017-06-15T14:14:15.864Z,26.90
2017-06-15T14:16:44.007Z,26.90
2017-06-15T14:19:12.261Z,26.60
2017-06-15T14:21:40.404Z,26.70
2017-06-15T14:24:08.616Z,26.80
2017-06-15T14:26:36.773Z,26.60
2017-06-15T14:29:04.954Z,26.60
2017-06-15T14:31:33.091Z,26.60
2017-06-15T14:34:01.217Z,26.50
2017-06-15T14:36:29.446Z,26.50
2017-06-15T14:38:57.597Z,26.50
2017-06-15T14:41:25.764Z,26.40
2017-06-15T14:43:53.907Z,26.20
2017-06-15T14:46:22.231Z,26.20
2017-06-15T14:48:50.363Z,26.20
2017-06-15T14:51:18.553Z,26.20
2017-06-15T14:53:47.467Z,26.10
2017-06-15T14:56:15.704Z,26.00
2017-06-15T14:58:44.039Z,25.90
2017-06-15T15:01:12.198Z,25.80
2017-06-15T15:03:40.398Z,25.80
2017-06-15T15:06:08.523Z,25.70
2017-06-15T15:09:02.441Z,25.80
2017-06-15T15:11:30.564Z,25.60
2017-06-15T15:13:59.467Z,25.50
2017-06-15T15:16:27.606Z,25.40
2017-06-15T15:18:55.729Z,25.30
2017-06-15T15:21:23.910Z,25.30
2017-06-15T15:23:52.065Z,25.40
2017-06-15T15:26:20.322Z,25.50
2017-06-15T15:28:48.461Z,25.60
2017-06-15T15:31:16.682Z,25.40
2017-06-15T15:33:44.890Z,25.50
2017-06-15T15:36:13.025Z,25.50
2017-06-15T15:38:41.183Z,25.60
2017-06-15T15:41:09.394Z,25.60
2017-06-15T15:43:37.602Z,25.70
2017-06-15T15:46:05.738Z,25.60
2017-06-15T15:48:33.857Z,25.60
2017-06-15T15:51:02.033Z,25.40
2017-06-15T15:53:30.620Z,25.50
2017-06-15T15:55:58.891Z,25.60
2017-06-15T15:58:27.025Z,25.70
2017-06-15T16:00:55.270Z,25.60
2017-06-15T16:03:23.429Z,25.70
2017-06-15T16:05:51.583Z,25.70
2017-06-15T16:08:19.897Z,25.70
2017-06-15T16:10:48.034Z,25.70
2017-06-15T16:13:16.269Z,25.70
2017-06-15T16:15:44.430Z,25.50
2017-06-15T16:18:12.845Z,25.50
2017-06-15T16:20:41.212Z,25.40
2017-06-15T16:23:09.346Z,25.50
2017-06-15T16:25:37.522Z,25.50
2017-06-15T16:28:05.667Z,25.60
2017-06-15T16:30:33.815Z,25.50
2017-06-15T16:33:01.955Z,25.50
2017-06-15T16:35:30.141Z,25.40
2017-06-15T16:37:58.252Z,25.40
2017-06-15T16:40:26.454Z,25.20
2017-06-15T16:42:54.663Z,25.10
2017-06-15T16:45:22.807Z,25.10
2017-06-15T16:47:51.125Z,25.10
2017-06-15T16:50:19.468Z,25.00
2017-06-15T16:52:47.702Z,25.00
2017-06-15T16:55:15.860Z,24.90
2017-06-15T16:57:43.996Z,24.90
2017-06-15T17:00:12.147Z,24.90
2017-06-15T17:02:40.272Z,24.80
2017-06-15T17:05:09.448Z,24.80
2017-06-15T17:07:38.026Z,24.80
2017-06-15T17:10:07.045Z,24.80
2017-06-15T17:12:35.217Z,24.80
2017-06-15T17:15:03.349Z,24.70
2017-06-15T17:17:31.490Z,24.70
2017-06-15T17:20:00.190Z,24.60
2017-06-15T17:22:28.341Z,24.60
2017-06-15T17:24:56.487Z,24.60
2017-06-15T17:27:24.703Z,24.60
2017-06-15T17:29:53.665Z,24.40
2017-06-15T17:32:21.785Z,24.20
2017-06-15T17:34:50.116Z,24.10
2017-06-15T17:37:18.268Z,23.90
2017-06-15T17:39:46.393Z,23.80
2017-06-15T17:42:15.306Z,23.70
2017-06-15T17:44:45.079Z,23.70
2017-06-15T17:47:13.233Z,23.70
2017-06-15T17:49:41.365Z,23.60
2017-06-15T17:52:09.519Z,23.50
2017-06-15T17:54:37.672Z,23.40
2017-06-15T17:57:06.893Z,23.30
2017-06-15T17:59:35.875Z,23.30
2017-06-15T18:02:04.008Z,23.20
2017-06-15T18:04:32.185Z,23.30
2017-06-15T18:07:00.299Z,23.20
2017-06-15T18:09:28.469Z,23.20
2017-06-15T18:11:56.676Z,23.10
2017-06-15T18:14:24.816Z,23.00
2017-06-15T18:16:52.980Z,23.00
2017-06-15T18:19:21.123Z,23.00
2017-06-15T18:21:50.029Z,23.00
2017-06-15T18:24:18.589Z,22.90
2017-06-15T18:26:46.821Z,23.00
2017-06-15T18:29:15.750Z,22.90
2017-06-15T18:31:44.299Z,22.90
2017-06-15T18:34:12.427Z,22.90
2017-06-15T18:36:40.614Z,22.90
2017-06-15T18:39:09.586Z,22.80
2017-06-15T18:41:38.622Z,22.80
2017-06-15T18:44:07.547Z,22.80
2017-06-15T18:46:35.678Z,22.70
2017-06-15T18:49:04.199Z,22.70
2017-06-15T18:51:33.322Z,22.70
2017-06-15T18:54:01.566Z,22.60
2017-06-15T18:56:30.166Z,22.60
2017-06-15T18:58:58.313Z,22.60
2017-06-15T19:01:26.482Z,22.50
2017-06-15T19:03:54.953Z,22.50
2017-06-15T19:06:23.105Z,22.40
2017-06-15T19:08:52.165Z,22.30
2017-06-15T19:11:20.702Z,22.20
2017-06-15T19:13:48.817Z,22.10
2017-06-15T19:16:17.197Z,22.10
2017-06-15T19:18:45.358Z,22.10
2017-06-15T19:21:13.529Z,22.00
2017-06-15T19:23:41.712Z,22.00
2017-06-15T19:26:09.862Z,21.90
2017-06-15T19:28:38.051Z,21.80
2017-06-15T19:31:06.189Z,21.80
2017-06-15T19:33:34.307Z,21.80
2017-06-15T19:36:02.466Z,21.80
2017-06-15T19:38:30.588Z,21.70
2017-06-15T19:40:58.742Z,21.60
2017-06-15T19:43:26.877Z,21.40
2017-06-15T19:45:55.042Z,21.30
2017-06-15T19:48:23.198Z,21.20
2017-06-15T19:50:51.329Z,21.00
2017-06-15T19:53:19.780Z,21.00
2017-06-15T19:55:47.965Z,20.90
2017-06-15T19:58:16.109Z,20.70
2017-06-15T20:00:44.278Z,20.70
2017-06-15T20:03:13.298Z,20.70
2017-06-15T20:05:41.429Z,20.60
2017-06-15T20:08:09.603Z,20.70
2017-06-15T20:10:38.719Z,20.70
2017-06-15T20:13:06.876Z,20.70
2017-06-15T20:15:35.118Z,20.80
2017-06-15T20:18:03.263Z,20.80
2017-06-15T20:20:31.477Z,20.80
2017-06-15T20:22:59.618Z,20.80
2017-06-15T20:25:43.243Z,20.80
2017-06-15T20:28:11.483Z,20.70
2017-06-15T20:30:39.602Z,20.60
2017-06-15T20:33:07.763Z,20.60
2017-06-15T20:35:35.901Z,20.60
2017-06-15T20:38:04.050Z,20.50
2017-06-15T20:40:32.166Z,20.60
2017-06-15T20:43:00.314Z,20.60
2017-06-15T20:45:28.524Z,20.60
2017-06-15T20:47:56.893Z,20.60
2017-06-15T20:50:25.045Z,20.60
2017-06-15T20:52:53.217Z,20.50
2017-06-15T20:55:21.962Z,20.50
2017-06-15T20:57:50.110Z,20.60
2017-06-15T21:00:18.280Z,20.50
2017-06-15T21:02:46.445Z,20.50
2017-06-15T21:05:14.762Z,20.50
2017-06-15T21:07:43.094Z,20.40
2017-06-15T21:10:11.391Z,20.40
2017-06-15T21:12:39.574Z,20.30
2017-06-15T21:15:08.798Z,20.40
2017-06-15T21:17:36.987Z,20.30
2017-06-15T21:20:05.197Z,20.20
2017-06-15T21:22:33.381Z,20.20
2017-06-15T21:25:02.302Z,20.10
2017-06-15T21:27:30.497Z,20.10
2017-06-15T21:29:58.673Z,20.10
2017-06-15T21:32:26.828Z,20.10
2017-06-15T21:34:55.008Z,20.10
2017-06-15T21:37:24.094Z,20.20
2017-06-15T21:39:52.261Z,20.00
2017-06-15T21:42:20.476Z,20.00
2017-06-15T21:44:48.609Z,20.00
2017-06-15T21:47:16.784Z,20.00
2017-06-15T21:49:44.926Z,20.00
2017-06-15T21:52:13.131Z,20.00
2017-06-15T21:54:41.277Z,20.00
2017-06-15T21:57:09.436Z,20.00
2017-06-15T21:59:37.596Z,20.00
2017-06-15T22:02:05.727Z,20.00
2017-06-15T22:04:34.726Z,20.00
2017-06-15T22:07:02.889Z,20.00
2017-06-15T22:09:31.181Z,20.00
2017-06-15T22:12:01.780Z,19.90
2017-06-15T22:14:29.976Z,19.90
2017-06-15T22:16:58.869Z,19.80
2017-06-15T22:19:27.007Z,19.60
2017-06-15T22:21:55.159Z,19.50
2017-06-15T22:24:23.268Z,19.40
2017-06-15T22:26:51.421Z,19.30
2017-06-15T22:29:19.559Z,19.10
2017-06-15T22:31:47.686Z,19.00
2017-06-15T22:34:15.848Z,18.80
2017-06-15T22:36:44.015Z,18.60
2017-06-15T22:39:12.166Z,18.40
2017-06-15T22:41:41.071Z,18.20
2017-06-15T22:44:09.191Z,18.20
2017-06-15T22:46:37.358Z,18.30
2017-06-15T22:49:05.502Z,18.30
2017-06-15T22:51:33.647Z,18.30
2017-06-15T22:54:01.770Z,18.20
2017-06-15T22:56:30.834Z,18.00
2017-06-15T22:58:58.983Z,18.00
2017-06-15T23:01:27.119Z,18.00
2017-06-15T23:03:55.325Z,17.90
2017-06-15T23:06:23.502Z,17.90
2017-06-15T23:08:51.657Z,17.80
2017-06-15T23:11:20.199Z,17.80
2017-06-15T23:13:48.377Z,17.90
2017-06-15T23:16:16.530Z,17.80
2017-06-15T23:18:45.585Z,17.70
2017-06-15T23:21:13.741Z,17.70
2017-06-15T23:23:41.889Z,17.60
2017-06-15T23:26:10.035Z,17.60
2017-06-15T23:28:38.173Z,17.60
2017-06-15T23:31:06.336Z,17.60
2017-06-15T23:33:35.377Z,17.60
2017-06-15T23:36:03.508Z,17.60
2017-06-15T23:38:31.665Z,17.70
2017-06-15T23:40:59.802Z,17.60
2017-06-15T23:43:27.992Z,17.60
2017-06-15T23:45:56.105Z,17.60
2017-06-15T23:48:24.250Z,17.60
2017-06-15T23:50:52.393Z,17.70
2017-06-15T23:53:20.560Z,17.60
2017-06-15T23:55:48.694Z,17.60
2017-06-15T23:58:16.807Z,17.60
